Terminal Aerodrome Forecast
Issued by NWS

Home | Current Version | Previous Version | Text Only | Print | Product List | Glossary On
Versions: 1 2 3 4 5 6 7 8 9 10 11 12 13
113
FTUS44 KTSA 111720
TAFRVS
TAF
KRVS 111720Z 1118/1218 01010KT P6SM SCT250
     FM120000 00000KT P6SM SCT250
     FM121300 36010G15KT P6SM BKN250=

USA.gov is the U.S. government's official web portal to all federal, state and local government web resources and services.